createdAt,value
2023-01-13T00:00:04.961Z,87.16
2023-01-13T00:03:00.931Z,87.53
2023-01-13T00:05:30.769Z,87.70
2023-01-13T00:08:04.296Z,87.79
2023-01-13T00:10:34.324Z,87.86
2023-01-13T00:13:05.467Z,88.14
2023-01-13T00:15:37.556Z,88.30
2023-01-13T00:18:06.866Z,88.49
2023-01-13T00:20:38.524Z,88.64
2023-01-13T00:23:07.890Z,88.82
2023-01-13T00:25:37.103Z,89.03
2023-01-13T00:28:09.197Z,89.21
2023-01-13T00:30:43.928Z,89.27
2023-01-13T00:33:13.217Z,89.54
2023-01-13T00:35:47.020Z,89.55
2023-01-13T00:38:16.516Z,89.93
2023-01-13T00:40:56.742Z,89.93
2023-01-13T00:43:26.232Z,90.22
2023-01-13T00:45:56.392Z,90.39
2023-01-13T00:48:27.110Z,90.52
2023-01-13T00:50:58.967Z,90.44
2023-01-13T00:53:29.668Z,90.68
2023-01-13T00:56:03.054Z,90.67
2023-01-13T00:58:35.062Z,90.64
2023-01-13T01:01:09.873Z,90.70
2023-01-13T01:03:41.000Z,90.90
2023-01-13T01:06:13.267Z,90.90
2023-01-13T01:08:43.397Z,91.05
2023-01-13T01:11:16.818Z,91.21
2023-01-13T01:13:46.316Z,90.97
2023-01-13T01:16:17.394Z,91.19
2023-01-13T01:18:52.733Z,91.32
2023-01-13T01:21:23.402Z,91.58
2023-01-13T01:24:01.059Z,91.56
2023-01-13T01:26:31.406Z,91.66
2023-01-13T01:29:01.675Z,91.72
2023-01-13T01:31:44.331Z,91.65
2023-01-13T01:34:17.199Z,91.92
2023-01-13T01:36:49.591Z,92.26
2023-01-13T01:39:20.981Z,92.31
2023-01-13T01:42:08.669Z,92.47
2023-01-13T01:45:02.048Z,92.50
2023-01-13T01:47:32.790Z,92.93
2023-01-13T01:50:04.064Z,92.82
2023-01-13T01:52:37.453Z,92.88
2023-01-13T01:55:13.865Z,93.05
2023-01-13T01:57:49.611Z,93.22
2023-01-13T02:00:21.918Z,93.46
2023-01-13T02:02:51.586Z,93.60
2023-01-13T02:05:21.956Z,93.70
2023-01-13T02:07:55.201Z,93.66
2023-01-13T02:10:27.791Z,93.93
2023-01-13T02:13:01.497Z,93.88
2023-01-13T02:15:42.256Z,94.05
2023-01-13T02:18:26.150Z,94.37
2023-01-13T02:21:18.595Z,94.45
2023-01-13T02:24:36.609Z,94.60
2023-01-13T02:27:51.937Z,94.46
2023-01-13T02:30:49.119Z,94.92
2023-01-13T02:33:34.169Z,94.75
2023-01-13T02:36:11.415Z,94.84
2023-01-13T02:38:49.956Z,94.99
2023-01-13T02:41:47.325Z,94.80
2023-01-13T02:44:24.880Z,94.96
2023-01-13T02:46:57.794Z,94.95
2023-01-13T02:49:33.818Z,95.10
2023-01-13T02:52:10.513Z,95.06
2023-01-13T02:54:45.177Z,94.80
2023-01-13T02:57:17.864Z,94.90
2023-01-13T02:59:47.937Z,94.89
2023-01-13T03:02:20.202Z,94.97
2023-01-13T03:05:00.009Z,94.97
2023-01-13T03:07:58.750Z,94.77
2023-01-13T03:10:36.518Z,94.98
2023-01-13T03:13:21.457Z,94.96
2023-01-13T03:16:01.907Z,94.87
2023-01-13T03:18:40.715Z,95.03
2023-01-13T03:21:20.063Z,95.13
2023-01-13T03:23:53.931Z,95.06
2023-01-13T03:26:34.109Z,95.17
2023-01-13T03:29:11.916Z,95.15
2023-01-13T03:31:46.536Z,95.39
2023-01-13T03:34:21.654Z,95.22
2023-01-13T03:36:54.684Z,95.37
2023-01-13T03:39:34.051Z,95.40
2023-01-13T03:42:14.156Z,95.56
2023-01-13T03:44:48.122Z,95.32
2023-01-13T03:47:24.876Z,95.54
2023-01-13T03:50:00.326Z,95.53
2023-01-13T03:52:35.983Z,95.63
2023-01-13T03:55:10.575Z,95.88
2023-01-13T03:57:46.808Z,95.78
2023-01-13T04:00:18.379Z,95.91
2023-01-13T04:02:54.598Z,95.94
2023-01-13T04:05:25.665Z,96.00
2023-01-13T04:08:02.428Z,96.39
2023-01-13T04:10:36.425Z,96.27
2023-01-13T04:13:14.189Z,96.39
2023-01-13T04:15:47.478Z,96.51
2023-01-13T04:18:20.415Z,96.43
2023-01-13T04:20:54.258Z,96.68
2023-01-13T04:23:24.032Z,96.58
2023-01-13T04:25:53.389Z,96.57
2023-01-13T04:28:23.064Z,96.75
2023-01-13T04:30:52.561Z,96.78
2023-01-13T04:33:24.136Z,96.84
2023-01-13T04:35:54.551Z,96.76
2023-01-13T04:38:23.794Z,96.88
2023-01-13T04:40:52.859Z,96.97
2023-01-13T04:43:22.001Z,96.91
2023-01-13T04:45:51.149Z,96.89
2023-01-13T04:48:20.476Z,96.87
2023-01-13T04:50:49.877Z,96.94
2023-01-13T04:53:18.920Z,97.09
2023-01-13T04:55:49.123Z,96.98
2023-01-13T04:58:18.254Z,96.98
2023-01-13T05:00:47.545Z,97.01
2023-01-13T05:03:16.705Z,96.75
2023-01-13T05:05:46.158Z,96.96
2023-01-13T05:08:15.168Z,96.82
2023-01-13T05:10:44.652Z,96.91
2023-01-13T05:13:31.266Z,97.05
2023-01-13T05:16:20.783Z,97.14
2023-01-13T05:18:51.467Z,97.11
2023-01-13T05:21:39.320Z,97.41
2023-01-13T05:24:28.607Z,97.10
2023-01-13T05:26:58.738Z,97.23
2023-01-13T05:29:30.473Z,97.32
2023-01-13T05:32:02.100Z,97.35
2023-01-13T05:34:33.252Z,97.22
2023-01-13T05:37:02.718Z,97.15
2023-01-13T05:39:53.006Z,97.17
2023-01-13T05:42:40.817Z,97.14
2023-01-13T05:45:12.244Z,97.28
2023-01-13T05:47:43.958Z,97.21
2023-01-13T05:50:13.360Z,97.03
2023-01-13T05:52:43.329Z,96.80
2023-01-13T05:55:12.985Z,97.07
2023-01-13T05:57:42.302Z,96.95
2023-01-13T06:00:18.800Z,96.88
2023-01-13T06:02:48.632Z,96.86
2023-01-13T06:05:18.052Z,96.80
2023-01-13T06:07:48.386Z,96.78
2023-01-13T06:10:18.377Z,96.70
2023-01-13T06:12:47.352Z,96.75
2023-01-13T06:15:22.412Z,96.70
2023-01-13T06:17:51.845Z,96.57
2023-01-13T06:20:21.288Z,96.53
2023-01-13T06:22:54.145Z,96.52
2023-01-13T06:25:32.272Z,96.41
2023-01-13T06:28:01.834Z,96.55
2023-01-13T06:30:35.359Z,96.55
2023-01-13T06:33:33.478Z,96.51
2023-01-13T06:36:12.169Z,96.65
2023-01-13T06:38:45.463Z,96.45
2023-01-13T06:41:15.738Z,96.57
2023-01-13T06:43:46.122Z,96.74
2023-01-13T06:46:18.012Z,96.63
2023-01-13T06:48:55.623Z,96.54
2023-01-13T06:51:30.309Z,96.61
2023-01-13T06:54:02.324Z,96.43
2023-01-13T06:56:31.607Z,96.58
2023-01-13T06:59:00.902Z,96.43
2023-01-13T07:01:30.054Z,96.40
2023-01-13T07:03:59.324Z,96.56
2023-01-13T07:06:28.857Z,96.55
2023-01-13T07:08:57.885Z,96.40
2023-01-13T07:11:27.540Z,96.51
2023-01-13T07:14:16.864Z,96.29
2023-01-13T07:16:46.215Z,96.40
2023-01-13T07:19:25.128Z,96.08
2023-01-13T07:21:56.978Z,96.48
2023-01-13T07:24:26.008Z,96.24
2023-01-13T07:26:57.840Z,96.39
2023-01-13T07:29:27.051Z,96.31
2023-01-13T07:31:56.036Z,96.26
2023-01-13T07:34:27.700Z,96.34
2023-01-13T07:36:57.149Z,96.40
2023-01-13T07:39:26.172Z,96.31
2023-01-13T07:42:16.475Z,96.16
2023-01-13T07:44:46.649Z,96.22
2023-01-13T07:47:15.774Z,96.25
2023-01-13T07:49:45.173Z,96.14
2023-01-13T07:52:14.155Z,96.20
2023-01-13T07:54:43.246Z,96.18
2023-01-13T07:57:17.681Z,96.09
2023-01-13T07:59:48.505Z,96.02
2023-01-13T08:02:18.136Z,96.28
2023-01-13T08:04:48.150Z,96.28
2023-01-13T08:07:19.956Z,95.97
2023-01-13T08:09:49.445Z,96.03
2023-01-13T08:12:36.985Z,95.76
2023-01-13T08:15:09.510Z,96.12
2023-01-13T08:17:38.497Z,96.14
2023-01-13T08:20:10.476Z,96.07
2023-01-13T08:22:39.837Z,96.08
2023-01-13T08:25:09.940Z,96.37
2023-01-13T08:27:39.361Z,96.40
2023-01-13T08:30:12.597Z,96.40
2023-01-13T08:32:44.404Z,96.22
2023-01-13T08:35:13.932Z,96.24
2023-01-13T08:37:43.695Z,96.31
2023-01-13T08:40:15.068Z,96.23
2023-01-13T08:42:45.921Z,96.41
2023-01-13T08:45:16.661Z,96.30
2023-01-13T08:47:46.147Z,96.21
2023-01-13T08:50:21.057Z,96.19
2023-01-13T08:52:50.281Z,96.16
2023-01-13T08:55:19.975Z,96.23
2023-01-13T08:57:49.236Z,96.16
2023-01-13T09:00:22.307Z,96.15
2023-01-13T09:02:54.191Z,96.31
2023-01-13T09:05:26.040Z,96.24
2023-01-13T09:07:55.358Z,96.44
2023-01-13T09:10:26.619Z,96.31
2023-01-13T09:13:14.924Z,96.16
2023-01-13T09:15:45.774Z,96.40
2023-01-13T09:18:18.041Z,96.27
2023-01-13T09:20:47.323Z,96.46
2023-01-13T09:23:16.592Z,96.64
2023-01-13T09:25:45.948Z,96.62
2023-01-13T09:28:14.933Z,96.72
2023-01-13T09:30:43.953Z,96.75
2023-01-13T09:33:31.715Z,96.97
2023-01-13T09:36:01.142Z,96.71
2023-01-13T09:38:30.567Z,97.07
2023-01-13T09:40:59.776Z,96.86
2023-01-13T09:43:54.846Z,96.88
2023-01-13T09:46:46.608Z,96.84
2023-01-13T09:49:22.087Z,96.96
2023-01-13T09:51:58.214Z,97.14
2023-01-13T09:54:34.271Z,97.02
2023-01-13T09:57:08.627Z,96.71
2023-01-13T09:59:38.166Z,96.78
2023-01-13T10:02:33.656Z,96.60
2023-01-13T10:05:16.875Z,96.52
2023-01-13T10:07:52.567Z,96.21
2023-01-13T10:10:31.190Z,96.20
2023-01-13T10:13:16.322Z,96.11
2023-01-13T10:16:02.850Z,96.12
2023-01-13T10:18:42.815Z,96.22
2023-01-13T10:21:25.493Z,96.21
2023-01-13T10:24:01.684Z,96.11
2023-01-13T10:26:46.532Z,96.24
2023-01-13T10:29:24.681Z,96.20
2023-01-13T10:31:55.239Z,96.33
2023-01-13T10:34:25.713Z,96.34
2023-01-13T10:37:02.288Z,96.14
2023-01-13T10:39:40.998Z,96.12
2023-01-13T10:42:15.203Z,96.30
2023-01-13T10:44:49.796Z,96.10
2023-01-13T10:47:31.678Z,96.20
2023-01-13T10:50:04.768Z,96.05
2023-01-13T10:52:37.585Z,96.12
2023-01-13T10:55:27.426Z,96.01
2023-01-13T10:57:57.540Z,95.96
2023-01-13T11:00:32.861Z,95.87
2023-01-13T11:03:19.771Z,95.69
2023-01-13T11:05:54.798Z,95.52
2023-01-13T11:08:26.323Z,95.25
2023-01-13T11:10:58.566Z,95.23
2023-01-13T11:13:57.491Z,95.04
2023-01-13T11:16:28.155Z,95.00
2023-01-13T11:19:02.071Z,94.86
2023-01-13T11:21:36.470Z,94.75
2023-01-13T11:24:17.793Z,94.91
2023-01-13T11:26:54.587Z,94.89
2023-01-13T11:29:30.971Z,94.41
2023-01-13T11:32:11.210Z,94.24
2023-01-13T11:34:46.741Z,94.35
2023-01-13T11:37:23.134Z,94.39
2023-01-13T11:40:00.899Z,94.03
2023-01-13T11:42:36.712Z,93.57
2023-01-13T11:45:17.180Z,93.39
2023-01-13T11:47:48.487Z,92.86
2023-01-13T11:50:26.880Z,92.66
2023-01-13T11:53:12.227Z,92.41
2023-01-13T11:55:54.434Z,92.37
2023-01-13T11:58:50.216Z,92.49
2023-01-13T12:01:43.520Z,92.56
2023-01-13T12:04:27.362Z,92.59
2023-01-13T12:07:12.260Z,92.87
2023-01-13T12:10:04.169Z,93.05
2023-01-13T12:12:47.279Z,93.09
2023-01-13T12:15:35.462Z,93.18
2023-01-13T12:18:20.625Z,93.02
2023-01-13T12:21:03.058Z,92.91
2023-01-13T12:23:39.565Z,92.71
2023-01-13T12:26:11.368Z,92.78
2023-01-13T12:28:48.819Z,92.75
2023-01-13T12:31:19.401Z,92.78
2023-01-13T12:34:13.054Z,92.72
2023-01-13T12:37:03.578Z,92.51
2023-01-13T12:39:47.475Z,92.83
2023-01-13T12:42:39.879Z,93.07
2023-01-13T12:45:29.876Z,92.98
2023-01-13T12:48:01.004Z,93.03
2023-01-13T12:50:43.339Z,92.98
2023-01-13T12:53:44.819Z,93.10
2023-01-13T12:56:43.971Z,93.04
2023-01-13T12:59:48.957Z,93.15
2023-01-13T13:02:33.359Z,93.45
2023-01-13T13:05:39.192Z,93.53
2023-01-13T13:08:17.834Z,93.71
2023-01-13T13:11:00.073Z,94.09
2023-01-13T13:13:47.926Z,94.00
2023-01-13T13:16:49.384Z,94.02
2023-01-13T13:19:47.371Z,93.84
2023-01-13T13:22:38.737Z,93.63
2023-01-13T13:25:30.254Z,93.88
2023-01-13T13:28:16.123Z,93.65
2023-01-13T13:30:55.755Z,93.77
2023-01-13T13:34:05.235Z,93.83
2023-01-13T13:36:54.090Z,93.55
2023-01-13T13:39:44.787Z,93.61
2023-01-13T13:42:49.220Z,93.67
2023-01-13T13:45:40.113Z,93.70
2023-01-13T13:48:24.394Z,93.59
2023-01-13T13:50:58.283Z,93.81
2023-01-13T13:53:33.543Z,93.81
2023-01-13T13:56:06.870Z,93.98
2023-01-13T13:58:36.886Z,94.05
2023-01-13T14:01:20.797Z,93.97
2023-01-13T14:04:06.219Z,94.06
2023-01-13T14:06:35.504Z,94.29
2023-01-13T14:09:15.299Z,94.40
2023-01-13T14:11:53.991Z,94.48
2023-01-13T14:14:24.486Z,94.42
2023-01-13T14:16:54.881Z,94.76
2023-01-13T14:19:32.324Z,94.76
2023-01-13T14:22:02.835Z,94.80
2023-01-13T14:24:33.159Z,94.83
2023-01-13T14:27:10.929Z,94.83
2023-01-13T14:29:40.555Z,94.98
2023-01-13T14:32:13.719Z,94.99
2023-01-13T14:34:45.174Z,94.66
2023-01-13T14:37:34.851Z,94.49
2023-01-13T14:40:30.124Z,94.35
2023-01-13T14:43:00.079Z,94.21
2023-01-13T14:45:36.312Z,94.23
2023-01-13T14:48:09.782Z,93.98
2023-01-13T14:50:38.841Z,93.93
2023-01-13T14:53:43.968Z,93.91
2023-01-13T14:59:58.365Z,93.82
2023-01-13T15:02:48.288Z,93.85
2023-01-13T15:05:46.776Z,93.69
2023-01-13T15:08:27.567Z,93.90
2023-01-13T15:11:01.785Z,93.93
2023-01-13T15:14:08.743Z,93.83
2023-01-13T15:17:02.525Z,94.00
2023-01-13T15:19:31.888Z,94.10
2023-01-13T15:22:01.677Z,94.17
2023-01-13T15:24:31.408Z,94.28
2023-01-13T15:27:03.948Z,94.37
2023-01-13T15:29:40.823Z,94.35
2023-01-13T15:32:28.919Z,94.38
2023-01-13T15:34:58.217Z,94.60
2023-01-13T15:37:27.405Z,94.54
2023-01-13T15:40:04.099Z,94.87
2023-01-13T15:42:58.104Z,94.94
2023-01-13T15:45:46.084Z,95.07
2023-01-13T15:48:15.620Z,95.21
2023-01-13T15:50:44.673Z,95.26
2023-01-13T15:53:14.969Z,95.35
2023-01-13T15:55:50.944Z,95.43
2023-01-13T15:58:24.076Z,95.40
2023-01-13T16:00:54.008Z,95.45
2023-01-13T16:03:23.239Z,95.63
2023-01-13T16:05:54.759Z,95.67
2023-01-13T16:08:24.044Z,95.45
2023-01-13T16:10:53.196Z,95.51
2023-01-13T16:13:22.337Z,95.66
2023-01-13T16:15:57.491Z,95.57
2023-01-13T16:18:27.883Z,95.61
2023-01-13T16:20:57.197Z,95.75
2023-01-13T16:23:34.978Z,95.79
2023-01-13T16:26:07.169Z,95.47
2023-01-13T16:28:36.290Z,95.71
2023-01-13T16:31:18.297Z,95.61
2023-01-13T16:33:47.880Z,95.57
2023-01-13T16:36:21.256Z,95.55
2023-01-13T16:38:51.511Z,95.44
2023-01-13T16:41:21.722Z,95.43
2023-01-13T16:43:51.979Z,95.40
2023-01-13T16:46:26.225Z,95.42
2023-01-13T16:48:57.609Z,95.04
2023-01-13T16:51:26.956Z,95.23
2023-01-13T16:53:56.175Z,95.39
2023-01-13T16:56:28.288Z,95.09
2023-01-13T16:59:02.598Z,95.13
2023-01-13T17:01:34.553Z,95.27
2023-01-13T17:04:04.543Z,94.97
2023-01-13T17:06:39.279Z,95.12
2023-01-13T17:09:21.221Z,95.08
2023-01-13T17:11:51.256Z,95.06
2023-01-13T17:14:22.928Z,94.81
2023-01-13T17:16:54.818Z,95.04
2023-01-13T17:19:25.205Z,95.00
2023-01-13T17:21:54.585Z,95.08
2023-01-13T17:24:25.271Z,94.88
2023-01-13T17:26:54.479Z,94.95
2023-01-13T17:29:26.531Z,94.69
2023-01-13T17:31:56.511Z,94.87
2023-01-13T17:34:26.279Z,94.96
2023-01-13T17:36:56.237Z,94.90
2023-01-13T17:39:26.910Z,94.93
2023-01-13T17:41:56.528Z,94.72
2023-01-13T17:44:26.090Z,94.71
2023-01-13T17:46:55.409Z,94.80
2023-01-13T17:49:25.001Z,95.05
2023-01-13T17:51:54.417Z,95.04
2023-01-13T17:54:26.656Z,95.05
2023-01-13T17:56:56.611Z,94.96
2023-01-13T17:59:26.219Z,94.83
2023-01-13T18:01:55.549Z,94.68
2023-01-13T18:04:26.588Z,94.58
2023-01-13T18:06:56.639Z,94.64
2023-01-13T18:09:26.162Z,94.62
2023-01-13T18:11:55.245Z,94.59
2023-01-13T18:14:24.679Z,94.56
2023-01-13T18:16:53.884Z,94.50
2023-01-13T18:19:41.351Z,94.53
2023-01-13T18:22:31.760Z,94.72
2023-01-13T18:25:20.847Z,94.41
2023-01-13T18:27:53.929Z,94.30
2023-01-13T18:30:23.663Z,94.45
2023-01-13T18:32:53.142Z,94.46
2023-01-13T18:35:22.739Z,94.48
2023-01-13T18:37:52.164Z,94.32
2023-01-13T18:40:21.874Z,93.98
2023-01-13T18:42:58.334Z,94.04
2023-01-13T18:45:29.509Z,94.07
2023-01-13T18:48:00.937Z,93.91
2023-01-13T18:50:30.981Z,93.85
2023-01-13T18:53:00.297Z,94.00
2023-01-13T18:55:30.173Z,93.89
2023-01-13T18:58:00.124Z,94.00
2023-01-13T19:00:35.306Z,93.95
2023-01-13T19:05:43.270Z,94.20
2023-01-13T19:08:12.759Z,94.21
2023-01-13T19:10:42.043Z,94.07
2023-01-13T19:13:11.287Z,93.99
2023-01-13T19:15:40.875Z,94.17
2023-01-13T19:18:10.403Z,94.15
2023-01-13T19:20:41.788Z,94.18
2023-01-13T19:23:12.012Z,94.07
2023-01-13T19:25:41.359Z,94.14
2023-01-13T19:28:10.781Z,94.18
2023-01-13T19:30:39.902Z,94.10
2023-01-13T19:33:09.282Z,94.12
2023-01-13T19:35:38.454Z,94.28
2023-01-13T19:38:07.480Z,94.04
2023-01-13T19:40:37.599Z,93.95
2023-01-13T19:43:25.215Z,93.90
2023-01-13T19:45:58.647Z,93.81
2023-01-13T19:48:27.884Z,93.78
2023-01-13T19:51:00.386Z,93.56
2023-01-13T19:53:30.686Z,93.77
2023-01-13T19:56:00.364Z,93.74
2023-01-13T19:58:29.601Z,93.70
2023-01-13T20:00:59.411Z,93.64
2023-01-13T20:03:34.782Z,93.56
2023-01-13T20:06:11.491Z,93.41
2023-01-13T20:08:45.534Z,93.51
2023-01-13T20:11:22.224Z,93.40
2023-01-13T20:13:52.379Z,93.42
2023-01-13T20:16:21.761Z,93.43
2023-01-13T20:18:51.836Z,93.37
2023-01-13T20:21:21.064Z,93.44
2023-01-13T20:23:56.997Z,93.37
2023-01-13T20:26:26.168Z,93.34
2023-01-13T20:28:56.448Z,93.27
2023-01-13T20:31:26.701Z,93.24
2023-01-13T20:33:56.532Z,93.22
2023-01-13T20:36:32.543Z,93.23
2023-01-13T20:39:03.936Z,93.25
2023-01-13T20:41:51.522Z,93.26
2023-01-13T20:44:21.610Z,93.33
2023-01-13T20:46:53.770Z,93.37
2023-01-13T20:49:23.448Z,93.45
2023-01-13T20:51:53.013Z,93.33
2023-01-13T20:54:22.518Z,93.26
2023-01-13T20:56:51.987Z,93.01
2023-01-13T20:59:22.287Z,93.22
2023-01-13T21:01:51.509Z,93.08
2023-01-13T21:04:20.717Z,92.92
2023-01-13T21:06:51.635Z,92.87
2023-01-13T21:09:22.664Z,92.91
2023-01-13T21:12:10.849Z,92.78
2023-01-13T21:14:58.740Z,92.79
2023-01-13T21:17:46.269Z,92.81
2023-01-13T21:20:16.943Z,92.93
2023-01-13T21:22:48.979Z,93.00
2023-01-13T21:25:19.323Z,92.88
2023-01-13T21:27:49.526Z,92.82
2023-01-13T21:30:19.806Z,92.59
2023-01-13T21:32:48.873Z,92.66
2023-01-13T21:35:18.215Z,92.54
2023-01-13T21:37:51.752Z,92.40
2023-01-13T21:40:22.086Z,92.54
2023-01-13T21:43:13.573Z,92.50
2023-01-13T21:46:01.547Z,92.32
2023-01-13T21:48:30.739Z,92.27
2023-01-13T21:51:01.360Z,92.27
2023-01-13T21:53:30.722Z,92.27
2023-01-13T21:55:59.852Z,92.08
2023-01-13T21:58:28.970Z,92.11
2023-01-13T22:01:03.263Z,92.13
2023-01-13T22:03:54.548Z,92.10
2023-01-13T22:06:27.667Z,92.06
2023-01-13T22:08:59.340Z,92.16
2023-01-13T22:11:31.579Z,92.10
2023-01-13T22:14:08.104Z,92.02
2023-01-13T22:16:48.372Z,91.87
2023-01-13T22:19:18.957Z,91.82
2023-01-13T22:21:48.016Z,91.73
2023-01-13T22:24:21.886Z,92.02
2023-01-13T22:26:51.634Z,91.89
2023-01-13T22:29:20.838Z,91.77
2023-01-13T22:31:50.360Z,91.64
2023-01-13T22:34:19.927Z,91.57
2023-01-13T22:36:49.118Z,91.64
2023-01-13T22:39:19.443Z,91.71
2023-01-13T22:41:48.890Z,91.56
2023-01-13T22:44:21.085Z,91.53
2023-01-13T22:46:52.443Z,91.37
2023-01-13T22:49:22.467Z,91.45
2023-01-13T22:51:52.536Z,91.41
2023-01-13T22:54:21.904Z,91.52
2023-01-13T22:56:50.898Z,91.60
2023-01-13T22:59:21.299Z,91.37
2023-01-13T23:01:52.886Z,91.39
2023-01-13T23:04:22.518Z,91.27
2023-01-13T23:06:51.887Z,91.28
2023-01-13T23:09:20.809Z,91.11
2023-01-13T23:11:50.694Z,91.32
2023-01-13T23:14:22.963Z,91.28
2023-01-13T23:16:52.537Z,91.16
2023-01-13T23:19:21.801Z,91.15
2023-01-13T23:21:50.739Z,91.08
2023-01-13T23:24:20.026Z,91.22
2023-01-13T23:26:50.891Z,91.23
2023-01-13T23:29:20.624Z,91.07
2023-01-13T23:31:49.760Z,91.13
2023-01-13T23:34:18.948Z,91.12
2023-01-13T23:36:49.818Z,91.10
2023-01-13T23:39:29.300Z,91.10
2023-01-13T23:42:15.404Z,91.01
2023-01-13T23:44:48.734Z,91.06
2023-01-13T23:47:21.704Z,91.01
2023-01-13T23:49:52.506Z,91.08
2023-01-13T23:52:22.195Z,90.95
2023-01-13T23:54:54.953Z,91.02
2023-01-13T23:57:24.350Z,90.96
2023-01-13T23:59:59.800Z,90.95
